Time;durP1;ratioP1;P1;durP2;ratioP2;P2;SDS_P1;SDS_P2;PMS_P1;PMS_P2;Temp;Humidity;BMP_temperature;BMP_pressure;BME280_temperature;BME280_humidity;BME280_pressure;Samples;Min_cycle;Max_cycle;Signal;HPM_P1;HPM_P2
2024/04/11 00:01:22;;;;;;;10.93;3.47;;;12.80;99.90;;;;;;5483176;26;20014;-60
2024/04/11 00:03:49;;;;;;;7.60;3.67;;;12.80;99.90;;;;;;5489671;26;20088;-60
2024/04/11 00:06:19;;;;;;;9.93;3.50;;;12.80;99.90;;;;;;5425440;26;20024;-60
2024/04/11 00:08:46;;;;;;;7.00;3.15;;;12.80;99.90;;;;;;5417409;26;20030;-60
2024/04/11 00:11:13;;;;;;;8.85;3.47;;;12.80;99.90;;;;;;5419174;26;20378;-60
2024/04/11 00:13:40;;;;;;;7.15;3.65;;;12.80;99.90;;;;;;5417274;26;20003;-61
2024/04/11 00:16:07;;;;;;;8.07;3.40;;;12.80;99.90;;;;;;5418108;26;20015;-60
2024/04/11 00:18:34;;;;;;;7.32;3.33;;;12.90;99.90;;;;;;5418578;26;20073;-60
2024/04/11 00:21:02;;;;;;;6.95;3.05;;;12.90;99.90;;;;;;5388123;26;20589;-60
2024/04/11 00:23:29;;;;;;;7.40;3.10;;;12.90;99.90;;;;;;5418918;26;20388;-60
2024/04/11 00:25:56;;;;;;;8.82;3.20;;;12.90;99.90;;;;;;5417142;26;20008;-60
2024/04/11 00:28:25;;;;;;;7.90;3.00;;;12.90;99.90;;;;;;5418839;26;20076;-61
2024/04/11 00:30:52;;;;;;;9.88;3.33;;;12.90;99.90;;;;;;5418821;26;20011;-62
2024/04/11 00:33:19;;;;;;;7.50;2.70;;;13.00;99.90;;;;;;5419030;26;19999;-63
2024/04/11 00:35:52;;;;;;;7.40;2.90;;;12.90;99.90;;;;;;5418697;26;20021;-63
2024/04/11 00:38:19;;;;;;;6.85;2.70;;;12.90;99.90;;;;;;5418639;26;20014;-62
2024/04/11 00:40:46;;;;;;;7.43;3.03;;;12.90;99.90;;;;;;5418763;26;20341;-62
2024/04/11 00:43:14;;;;;;;6.32;2.63;;;12.90;99.90;;;;;;5418985;26;20011;-66
2024/04/11 00:45:41;;;;;;;5.57;2.25;;;12.90;99.90;;;;;;5419774;26;20056;-66
2024/04/11 00:48:10;;;;;;;5.45;2.20;;;12.90;99.90;;;;;;5418533;26;20000;-65
2024/04/11 00:50:41;;;;;;;6.55;2.78;;;12.90;99.90;;;;;;5418571;26;20003;-64
2024/04/11 00:53:08;;;;;;;8.10;2.65;;;12.90;99.90;;;;;;5418583;26;20392;-65
2024/04/11 00:55:35;;;;;;;7.28;2.45;;;12.80;99.90;;;;;;5418402;26;20015;-64
2024/04/11 00:58:02;;;;;;;4.50;2.60;;;12.80;99.90;;;;;;5416607;26;20007;-65
2024/04/11 01:00:29;;;;;;;5.55;2.40;;;12.90;99.90;;;;;;5418150;26;20068;-66
2024/04/11 01:02:56;;;;;;;8.05;3.03;;;12.90;99.90;;;;;;5418239;26;20041;-65
2024/04/11 01:05:23;;;;;;;7.28;2.70;;;12.90;99.90;;;;;;5418468;26;20004;-66
2024/04/11 01:07:50;;;;;;;5.95;2.35;;;12.90;99.90;;;;;;5418360;26;20018;-65
2024/04/11 01:10:18;;;;;;;7.28;2.70;;;12.90;99.90;;;;;;5418070;26;20003;-65
2024/04/11 01:12:44;;;;;;;6.05;2.60;;;12.90;99.90;;;;;;5418802;26;20022;-65
2024/04/11 01:15:11;;;;;;;6.60;2.65;;;12.90;99.90;;;;;;5418052;26;20404;-66
2024/04/11 01:17:38;;;;;;;5.47;2.47;;;12.90;99.90;;;;;;5418169;26;20068;-66
2024/04/11 01:20:06;;;;;;;7.70;2.92;;;13.00;99.90;;;;;;5418195;26;20011;-66
2024/04/11 01:22:34;;;;;;;7.13;2.85;;;13.00;99.90;;;;;;5418480;26;20354;-65
2024/04/11 01:25:01;;;;;;;7.78;2.90;;;13.00;99.90;;;;;;5418227;26;20004;-65
2024/04/11 01:27:29;;;;;;;7.00;2.85;;;12.90;99.90;;;;;;5417729;26;20345;-65
2024/04/11 01:29:57;;;;;;;9.63;3.33;;;12.90;99.90;;;;;;5416134;26;20007;-65
2024/04/11 01:32:25;;;;;;;5.25;2.88;;;12.90;99.90;;;;;;5417861;26;20290;-65
2024/04/11 01:34:56;;;;;;;8.02;2.92;;;12.90;99.90;;;;;;5417857;26;20003;-66
2024/04/11 01:37:23;;;;;;;7.13;2.70;;;12.80;99.90;;;;;;5417923;26;20445;-66
2024/04/11 01:39:50;;;;;;;9.27;3.00;;;12.80;99.90;;;;;;5416050;26;20003;-65
2024/04/11 01:42:20;;;;;;;9.68;3.20;;;12.80;99.90;;;;;;5417734;26;20028;-66
2024/04/11 01:44:47;;;;;;;8.88;3.65;;;12.80;99.90;;;;;;5417963;26;20004;-65
2024/04/11 01:47:14;;;;;;;7.60;3.65;;;12.80;99.90;;;;;;5417693;26;20007;-66
2024/04/11 01:49:41;;;;;;;9.27;3.30;;;12.80;99.90;;;;;;5417546;26;20026;-65
2024/04/11 01:52:12;;;;;;;6.43;2.80;;;12.70;99.90;;;;;;5417594;26;20003;-66
2024/04/11 01:54:39;;;;;;;6.32;2.95;;;12.70;99.90;;;;;;5417642;26;20080;-65
2024/04/11 01:57:06;;;;;;;8.23;3.25;;;12.80;99.90;;;;;;5417562;26;20632;-67
2024/04/11 01:59:33;;;;;;;8.23;3.72;;;12.80;99.90;;;;;;5417688;26;20460;-65
2024/04/11 02:02:07;;;;;;;8.52;3.70;;;12.80;99.90;;;;;;5417849;26;20014;-65
2024/04/11 02:04:35;;;;;;;6.55;3.25;;;12.80;99.90;;;;;;5417596;26;20076;-66
2024/04/11 02:07:04;;;;;;;7.82;3.47;;;12.80;99.90;;;;;;5430289;26;20099;-65
2024/04/11 02:09:31;;;;;;;8.77;3.58;;;12.80;99.90;;;;;;5453234;26;20440;-66
2024/04/11 02:11:58;;;;;;;5.75;3.15;;;12.90;99.90;;;;;;5453408;26;19999;-66
2024/04/11 02:14:27;;;;;;;7.25;3.55;;;12.80;99.90;;;;;;5452260;26;20006;-66
2024/04/11 02:16:55;;;;;;;7.80;3.42;;;12.90;99.90;;;;;;5453093;26;20078;-66
2024/04/11 02:19:22;;;;;;;7.88;3.45;;;12.90;99.90;;;;;;5453119;26;20035;-66
2024/04/11 02:21:49;;;;;;;6.10;3.40;;;12.80;99.90;;;;;;5453334;26;20075;-66
2024/04/11 02:24:17;;;;;;;8.65;3.50;;;12.90;99.90;;;;;;5452845;26;20003;-65
2024/04/11 02:26:48;;;;;;;5.93;2.90;;;12.90;99.90;;;;;;5453008;26;20070;-66
2024/04/11 02:29:15;;;;;;;6.43;3.05;;;12.80;99.90;;;;;;5452826;26;20003;-66
2024/04/11 02:31:42;;;;;;;8.13;3.00;;;12.80;99.90;;;;;;5452674;26;20492;-66
2024/04/11 02:34:09;;;;;;;7.43;3.10;;;12.90;99.90;;;;;;5452776;26;20030;-66
2024/04/11 02:36:36;;;;;;;7.40;2.92;;;12.90;99.90;;;;;;5452665;26;20015;-65
2024/04/11 02:39:07;;;;;;;7.15;2.72;;;12.90;99.90;;;;;;5453069;26;20031;-61
2024/04/11 02:41:37;;;;;;;7.13;2.70;;;12.90;99.90;;;;;;5453585;26;20104;-61
2024/04/11 02:44:04;;;;;;;5.65;2.72;;;12.90;99.90;;;;;;5456572;26;20021;-61
2024/04/11 02:46:31;;;;;;;7.50;2.70;;;12.90;99.90;;;;;;5456215;26;20399;-61
2024/04/11 02:48:58;;;;;;;9.63;2.78;;;12.90;99.90;;;;;;5456105;26;20002;-61
2024/04/11 02:51:25;;;;;;;8.05;2.50;;;12.90;99.90;;;;;;5454426;26;20007;-61
2024/04/11 02:53:53;;;;;;;4.85;2.20;;;12.90;99.90;;;;;;5455920;26;20003;-61
2024/04/11 02:56:22;;;;;;;5.53;2.38;;;12.90;99.90;;;;;;5453791;26;20325;-61
2024/04/11 02:58:50;;;;;;;5.60;2.45;;;12.90;99.90;;;;;;5455682;26;20449;-61
2024/04/11 03:01:16;;;;;;;5.13;2.13;;;12.90;99.90;;;;;;5455577;26;20015;-61
2024/04/11 03:03:43;;;;;;;5.68;2.22;;;12.90;99.90;;;;;;5454195;26;20409;-61
2024/04/11 03:06:17;;;;;;;6.15;2.42;;;12.90;99.90;;;;;;5454932;26;20459;-61
2024/04/11 03:08:44;;;;;;;6.22;2.42;;;12.90;99.90;;;;;;5455845;26;20048;-61
2024/04/11 03:11:11;;;;;;;5.95;2.20;;;12.90;99.90;;;;;;5455849;26;20002;-60
2024/04/11 03:13:38;;;;;;;4.45;2.05;;;12.90;99.90;;;;;;5455979;26;20009;-62
2024/04/11 03:16:05;;;;;;;6.07;2.60;;;12.90;99.90;;;;;;5454907;26;20015;-62
2024/04/11 03:18:32;;;;;;;6.10;2.65;;;12.90;99.90;;;;;;5456062;26;20018;-62
2024/04/11 03:21:02;;;;;;;6.03;2.63;;;12.90;99.90;;;;;;5455763;26;20011;-62
2024/04/11 03:23:29;;;;;;;6.18;2.65;;;12.90;99.90;;;;;;5455478;26;20007;-62
2024/04/11 03:25:56;;;;;;;5.18;2.78;;;12.90;99.90;;;;;;5455379;26;20003;-62
2024/04/11 03:28:23;;;;;;;4.93;3.00;;;12.90;99.90;;;;;;5454415;26;20409;-62
2024/04/11 03:30:50;;;;;;;5.97;3.45;;;12.80;99.90;;;;;;5455275;26;20007;-62
2024/04/11 03:33:17;;;;;;;9.13;3.72;;;12.90;99.90;;;;;;5455356;26;20078;-62
2024/04/11 03:35:44;;;;;;;6.97;3.53;;;12.90;99.90;;;;;;5453516;26;20021;-62
2024/04/11 03:38:10;;;;;;;6.50;3.70;;;12.90;99.90;;;;;;5455303;26;20490;-62
2024/04/11 03:40:37;;;;;;;5.97;3.42;;;12.90;99.90;;;;;;5455239;26;20007;-62
2024/04/11 03:43:05;;;;;;;6.20;3.88;;;12.90;99.90;;;;;;5455251;26;20010;-62
2024/04/11 03:45:32;;;;;;;9.43;4.35;;;12.90;99.90;;;;;;5455303;26;20034;-62
2024/04/11 03:48:01;;;;;;;7.13;4.35;;;12.90;99.90;;;;;;5455061;26;20035;-62
2024/04/11 03:50:29;;;;;;;8.10;4.13;;;12.90;99.90;;;;;;5454937;26;20003;-62
2024/04/11 03:53:00;;;;;;;8.13;4.47;;;12.90;99.90;;;;;;5453279;26;20014;-62
2024/04/11 03:55:27;;;;;;;8.70;4.63;;;12.90;99.90;;;;;;5454905;26;20018;-62
2024/04/11 03:57:54;;;;;;;11.90;4.97;;;12.90;99.90;;;;;;5454901;26;20007;-62
2024/04/11 04:00:21;;;;;;;9.25;4.45;;;12.90;99.90;;;;;;5454832;26;20014;-62
2024/04/11 04:02:48;;;;;;;6.63;4.35;;;12.90;99.90;;;;;;5454699;26;20006;-62
2024/04/11 04:05:15;;;;;;;8.50;4.65;;;12.90;99.90;;;;;;5454751;26;19999;-62
2024/04/11 04:07:42;;;;;;;6.72;4.32;;;12.90;99.90;;;;;;5454443;26;20487;-64
2024/04/11 04:10:12;;;;;;;6.50;3.80;;;12.90;99.90;;;;;;5454076;26;20014;-65
2024/04/11 04:12:39;;;;;;;8.45;4.55;;;12.90;99.90;;;;;;5455475;26;20003;-65
2024/04/11 04:15:08;;;;;;;8.77;4.50;;;12.90;99.90;;;;;;5452446;26;19998;-65
2024/04/11 04:17:35;;;;;;;9.13;4.32;;;12.80;99.90;;;;;;5455100;26;20462;-65
2024/04/11 04:20:03;;;;;;;8.98;4.35;;;12.80;99.90;;;;;;5453358;26;20009;-65
2024/04/11 04:22:30;;;;;;;8.32;4.18;;;12.80;99.90;;;;;;5455221;26;20011;-65
2024/04/11 04:24:57;;;;;;;6.05;3.60;;;12.80;99.90;;;;;;5455009;26;20071;-64
2024/04/11 04:27:25;;;;;;;7.88;3.70;;;12.80;99.90;;;;;;5455042;26;20007;-60
2024/04/11 04:29:57;;;;;;;7.82;3.97;;;12.80;99.90;;;;;;5454989;26;20471;-60
2024/04/11 04:32:25;;;;;;;8.00;3.88;;;12.70;99.90;;;;;;5454937;26;20014;-60
2024/04/11 04:34:52;;;;;;;7.22;3.72;;;12.70;99.90;;;;;;5454868;26;20003;-60
2024/04/11 04:37:19;;;;;;;7.85;3.90;;;12.70;99.90;;;;;;5454930;26;20011;-61
2024/04/11 04:39:46;;;;;;;8.15;3.70;;;12.70;99.90;;;;;;5454872;26;20078;-61
2024/04/11 04:42:13;;;;;;;8.20;3.65;;;12.70;99.90;;;;;;5454136;26;20007;-61
2024/04/11 04:44:40;;;;;;;6.70;3.40;;;12.70;99.90;;;;;;5453384;26;20014;-62
2024/04/11 04:47:16;;;;;;;8.13;3.63;;;12.70;99.90;;;;;;5454892;26;20015;-62
2024/04/11 04:49:43;;;;;;;9.02;3.30;;;12.70;99.90;;;;;;5452489;26;20375;-62
2024/04/11 04:52:10;;;;;;;5.07;2.80;;;12.70;99.90;;;;;;5454772;26;20830;-62
2024/04/11 04:54:37;;;;;;;5.45;2.95;;;12.70;99.90;;;;;;5454745;26;20006;-62
2024/04/11 04:57:04;;;;;;;6.22;3.15;;;12.70;99.90;;;;;;5453895;26;20461;-62
2024/04/11 04:59:31;;;;;;;5.75;2.45;;;12.70;99.90;;;;;;5452983;26;20463;-60
2024/04/11 05:01:58;;;;;;;6.50;2.80;;;12.80;99.90;;;;;;5454948;26;20003;-62
2024/04/11 05:04:29;;;;;;;6.07;2.80;;;12.80;99.90;;;;;;5453394;26;19999;-62
2024/04/11 05:06:58;;;;;;;4.28;2.60;;;12.80;99.90;;;;;;5454531;26;20014;-60
2024/04/11 05:09:26;;;;;;;5.88;2.50;;;12.80;99.90;;;;;;5454598;26;19999;-61
2024/04/11 05:11:53;;;;;;;4.05;2.53;;;12.80;99.90;;;;;;5453460;26;20369;-60
2024/04/11 05:14:20;;;;;;;4.45;2.38;;;12.80;99.90;;;;;;5454394;26;20432;-60
2024/04/11 05:16:50;;;;;;;7.05;2.45;;;12.80;99.90;;;;;;5452717;26;20056;-61
2024/04/11 05:19:17;;;;;;;7.22;2.30;;;12.80;99.90;;;;;;5451734;26;19999;-60
2024/04/11 05:21:45;;;;;;;6.47;2.45;;;12.80;99.90;;;;;;5454343;26;20014;-61
2024/04/11 05:24:12;;;;;;;5.07;2.10;;;12.90;99.90;;;;;;5454444;26;20014;-61
2024/04/11 05:26:39;;;;;;;5.32;2.15;;;12.90;99.90;;;;;;5453213;26;19999;-60
2024/04/11 05:29:07;;;;;;;6.07;2.58;;;12.90;99.90;;;;;;5454414;26;20003;-60
2024/04/11 05:31:37;;;;;;;4.47;2.10;;;12.90;99.90;;;;;;5454094;26;20003;-60
2024/04/11 05:34:08;;;;;;;4.63;2.13;;;12.90;99.90;;;;;;5452728;26;20048;-61
2024/04/11 05:36:39;;;;;;;4.22;1.80;;;12.90;99.90;;;;;;5454287;26;20366;-61
2024/04/11 05:39:09;;;;;;;6.13;1.92;;;12.90;99.90;;;;;;5454146;26;20017;-60
2024/04/11 05:41:37;;;;;;;4.38;1.73;;;12.90;99.90;;;;;;5454191;26;20003;-61
2024/04/11 05:44:06;;;;;;;4.70;1.70;;;12.90;99.90;;;;;;5453024;26;20003;-60
2024/04/11 05:46:34;;;;;;;4.05;1.58;;;12.90;99.90;;;;;;5453896;26;20068;-60
2024/04/11 05:49:04;;;;;;;4.00;1.73;;;13.00;99.90;;;;;;5452304;26;20018;-62
2024/04/11 05:51:33;;;;;;;3.63;1.58;;;13.00;99.90;;;;;;5419419;26;20076;-62
2024/04/11 05:54:01;;;;;;;3.20;1.23;;;13.00;99.90;;;;;;5417895;26;20019;-62
2024/04/11 05:56:29;;;;;;;3.53;1.60;;;13.00;99.90;;;;;;5416012;26;19999;-63
2024/04/11 05:58:55;;;;;;;3.90;1.77;;;13.00;99.90;;;;;;5417843;26;20003;-62
2024/04/11 06:01:24;;;;;;;4.75;1.88;;;13.00;99.90;;;;;;5417918;26;20352;-62
2024/04/11 06:03:54;;;;;;;3.78;1.50;;;13.00;99.90;;;;;;5417700;26;20004;-65
2024/04/11 06:06:21;;;;;;;4.15;1.52;;;13.00;99.90;;;;;;5417820;26;20043;-65
2024/04/11 06:08:48;;;;;;;5.15;1.30;;;13.00;99.90;;;;;;5417028;26;20457;-65
2024/04/11 06:11:17;;;;;;;4.85;1.40;;;13.00;99.90;;;;;;5417622;26;20404;-65
2024/04/11 06:13:47;;;;;;;7.80;1.70;;;13.10;99.90;;;;;;5417526;26;19999;-65
2024/04/11 06:16:14;;;;;;;4.80;1.42;;;13.00;99.90;;;;;;5414654;26;20418;-65
2024/04/11 06:18:43;;;;;;;7.00;1.50;;;13.00;99.90;;;;;;5417119;26;20027;-65
2024/04/11 06:21:11;;;;;;;6.65;1.55;;;13.00;99.90;;;;;;5449399;26;20492;-66
2024/04/11 06:23:39;;;;;;;5.10;1.50;;;13.00;99.90;;;;;;5451102;26;20022;-66
2024/04/11 06:26:06;;;;;;;4.85;1.70;;;13.00;99.90;;;;;;5452856;26;20013;-64
2024/04/11 06:28:34;;;;;;;4.85;1.80;;;13.10;99.90;;;;;;5451228;26;20083;-63
2024/04/11 06:31:01;;;;;;;4.53;1.50;;;13.10;99.90;;;;;;5452535;26;20013;-62
2024/04/11 06:33:31;;;;;;;6.18;1.50;;;13.10;99.90;;;;;;5453622;26;20043;-61
2024/04/11 06:35:59;;;;;;;5.07;1.60;;;13.10;99.90;;;;;;5452794;26;20459;-61
2024/04/11 06:38:26;;;;;;;7.25;1.77;;;13.10;99.90;;;;;;5453049;26;20006;-61
2024/04/11 06:40:53;;;;;;;8.48;1.95;;;13.20;99.90;;;;;;5450838;26;19999;-61
2024/04/11 06:43:21;;;;;;;5.78;1.83;;;13.20;99.90;;;;;;5452769;26;20371;-61
2024/04/11 06:45:51;;;;;;;7.50;2.17;;;13.20;99.90;;;;;;5452948;26;19999;-61
2024/04/11 06:48:21;;;;;;;5.75;1.92;;;13.20;99.90;;;;;;5452735;26;20048;-61
2024/04/11 06:50:50;;;;;;;8.82;2.13;;;13.20;99.90;;;;;;5452435;26;20003;-61
2024/04/11 06:53:17;;;;;;;7.30;1.90;;;13.20;99.90;;;;;;5452440;26;20011;-61
2024/04/11 06:55:46;;;;;;;4.97;1.88;;;13.20;99.90;;;;;;5450712;26;20002;-61
2024/04/11 06:58:17;;;;;;;5.85;1.70;;;13.20;99.90;;;;;;5452752;26;20007;-62
2024/04/11 07:00:46;;;;;;;5.18;1.55;;;13.20;99.90;;;;;;5451370;26;20039;-62
2024/04/11 07:03:16;;;;;;;5.07;1.70;;;13.30;99.90;;;;;;5451195;26;20138;-61
2024/04/11 07:05:44;;;;;;;8.00;1.50;;;13.30;99.90;;;;;;5450854;26;20010;-60
2024/04/11 07:08:11;;;;;;;6.82;1.95;;;13.30;99.90;;;;;;5450834;26;20017;-60
2024/04/11 07:10:46;;;;;;;4.82;1.50;;;13.30;99.90;;;;;;5450725;26;20014;-59
2024/04/11 07:13:13;;;;;;;4.60;1.35;;;13.30;99.90;;;;;;5450625;26;20018;-60
2024/04/11 07:15:42;;;;;;;3.78;1.27;;;13.40;99.90;;;;;;5452083;26;20015;-59
2024/04/11 07:18:14;;;;;;;5.85;1.30;;;13.40;99.90;;;;;;5452290;26;20022;-60
2024/04/11 07:20:48;;;;;;;4.30;1.20;;;13.50;99.90;;;;;;5452167;26;20007;-60
2024/04/11 07:23:17;;;;;;;3.92;1.08;;;13.60;99.90;;;;;;5452267;26;20079;-60
2024/04/11 07:25:44;;;;;;;4.38;1.30;;;13.60;99.90;;;;;;5451912;26;20003;-60
2024/04/11 07:28:11;;;;;;;4.20;1.25;;;13.60;99.90;;;;;;5453239;26;20007;-59
2024/04/11 07:30:38;;;;;;;3.97;1.00;;;13.70;99.90;;;;;;5455618;26;20019;-59
2024/04/11 07:33:06;;;;;;;2.85;0.90;;;13.70;99.90;;;;;;5455757;26;20026;-65
2024/04/11 07:35:37;;;;;;;3.20;0.82;;;13.80;99.90;;;;;;5455379;26;20030;-65
2024/04/11 07:38:04;;;;;;;3.88;0.85;;;13.80;99.90;;;;;;5455546;26;20003;-65
2024/04/11 07:40:45;;;;;;;3.05;0.90;;;13.80;99.90;;;;;;5455451;26;20014;-65
2024/04/11 07:43:13;;;;;;;4.50;1.02;;;13.90;99.90;;;;;;5455522;26;20002;-62
2024/04/11 07:45:44;;;;;;;1.95;0.70;;;13.90;99.90;;;;;;5455222;26;20039;-61
2024/04/11 07:48:12;;;;;;;3.58;0.80;;;14.00;99.90;;;;;;5455287;26;20002;-62
2024/04/11 07:50:44;;;;;;;2.58;0.73;;;14.00;99.90;;;;;;5455504;26;20003;-60
2024/04/11 07:53:18;;;;;;;3.22;1.02;;;14.10;99.90;;;;;;5453705;26;20011;-60
2024/04/11 07:55:49;;;;;;;2.97;0.90;;;14.10;99.90;;;;;;5455377;26;20005;-60
2024/04/11 07:58:20;;;;;;;1.67;0.60;;;14.20;99.90;;;;;;5455214;26;20225;-65
2024/04/11 08:00:47;;;;;;;4.38;0.80;;;14.20;99.90;;;;;;5455195;26;20003;-65
2024/04/11 08:03:18;;;;;;;1.88;0.68;;;14.20;99.90;;;;;;5455134;26;20003;-60
2024/04/11 08:05:45;;;;;;;2.05;0.80;;;14.30;99.90;;;;;;5455076;26;20002;-60
2024/04/11 08:08:12;;;;;;;2.78;0.88;;;14.30;99.90;;;;;;5455477;26;20003;-59
2024/04/11 08:10:39;;;;;;;2.58;0.80;;;14.40;99.90;;;;;;5455541;26;20052;-59
2024/04/11 08:13:08;;;;;;;3.05;0.82;;;14.50;99.90;;;;;;5455147;26;20043;-60
2024/04/11 08:15:35;;;;;;;2.75;0.73;;;14.50;99.90;;;;;;5453111;26;20101;-61
2024/04/11 08:18:06;;;;;;;3.05;0.70;;;14.60;99.90;;;;;;5455001;26;20053;-61
2024/04/11 08:20:34;;;;;;;3.70;0.70;;;14.60;99.90;;;;;;5454355;26;19999;-61
2024/04/11 08:23:02;;;;;;;2.22;0.70;;;14.60;99.90;;;;;;5454580;26;20034;-60
2024/04/11 08:25:37;;;;;;;2.97;0.70;;;14.60;99.90;;;;;;5454196;26;20030;-61
2024/04/11 08:28:04;;;;;;;1.63;0.60;;;14.70;99.90;;;;;;5454555;26;20154;-61
2024/04/11 08:30:35;;;;;;;1.77;0.55;;;14.70;99.90;;;;;;5454737;26;20079;-61
2024/04/11 08:33:09;;;;;;;2.47;0.70;;;14.80;99.90;;;;;;5454610;26;20087;-61
2024/04/11 08:35:36;;;;;;;2.72;0.50;;;14.90;99.90;;;;;;5455273;26;19998;-60
2024/04/11 08:38:06;;;;;;;2.40;0.57;;;14.90;99.90;;;;;;5454806;26;20017;-60
2024/04/11 08:40:33;;;;;;;1.73;0.60;;;15.00;99.90;;;;;;5454034;26;20478;-60
2024/04/11 08:43:01;;;;;;;2.72;0.80;;;15.10;99.90;;;;;;5454586;26;20047;-60
2024/04/11 08:45:28;;;;;;;2.00;0.60;;;15.10;99.90;;;;;;5452686;26;20003;-60
2024/04/11 08:47:55;;;;;;;1.40;0.60;;;15.20;99.90;;;;;;5454398;26;20034;-60
2024/04/11 08:50:23;;;;;;;1.63;0.60;;;15.30;99.90;;;;;;5454487;26;20033;-60
2024/04/11 08:52:50;;;;;;;1.90;0.73;;;15.30;99.90;;;;;;5452696;26;20035;-60
2024/04/11 08:55:17;;;;;;;3.58;0.70;;;15.30;99.90;;;;;;5454731;26;20013;-64
2024/04/11 08:57:44;;;;;;;2.78;0.60;;;15.40;99.90;;;;;;5454454;26;20507;-65
2024/04/11 09:00:12;;;;;;;1.88;0.80;;;15.40;99.90;;;;;;5454361;26;20037;-64
2024/04/11 09:02:41;;;;;;;1.67;0.70;;;15.40;99.90;;;;;;5454271;26;20325;-64
2024/04/11 09:05:10;;;;;;;1.58;0.60;;;15.50;99.90;;;;;;5454326;26;20018;-64
2024/04/11 09:07:39;;;;;;;3.70;0.77;;;15.60;99.90;;;;;;5454323;26;20021;-64
2024/04/11 09:10:07;;;;;;;2.85;0.60;;;15.70;99.90;;;;;;5454595;26;20047;-64
2024/04/11 09:12:34;;;;;;;2.40;0.57;;;15.70;99.90;;;;;;5454139;26;20011;-64
2024/04/11 09:15:01;;;;;;;1.65;0.60;;;15.80;99.90;;;;;;5454147;26;19999;-65
2024/04/11 09:17:27;;;;;;;3.88;0.55;;;15.80;99.90;;;;;;5452141;26;20007;-64
2024/04/11 09:19:54;;;;;;;1.60;0.82;;;16.00;99.90;;;;;;5453774;26;20007;-64
2024/04/11 09:22:21;;;;;;;2.67;0.57;;;16.00;99.90;;;;;;5453774;26;20007;-65
2024/04/11 09:24:50;;;;;;;2.60;0.77;;;16.00;99.90;;;;;;5453801;26;19998;-65
2024/04/11 09:27:17;;;;;;;2.55;0.75;;;16.10;99.90;;;;;;5454057;26;20021;-62
2024/04/11 09:29:44;;;;;;;2.05;0.70;;;16.20;99.90;;;;;;5454076;26;20432;-62
2024/04/11 09:32:11;;;;;;;2.20;0.70;;;16.20;99.90;;;;;;5453901;26;20003;-62
2024/04/11 09:34:38;;;;;;;1.77;0.60;;;16.20;99.90;;;;;;5454154;26;20003;-62
2024/04/11 09:37:14;;;;;;;3.05;0.68;;;16.20;99.90;;;;;;5454234;26;20095;-62
2024/04/11 09:39:45;;;;;;;2.78;0.77;;;16.20;99.90;;;;;;5454011;26;19999;-63
2024/04/11 09:42:19;;;;;;;3.17;0.77;;;16.30;99.90;;;;;;5453611;26;20008;-63
2024/04/11 09:44:47;;;;;;;1.17;0.50;;;16.40;99.90;;;;;;5453693;26;20075;-63
2024/04/11 09:47:14;;;;;;;1.83;0.63;;;16.40;99.90;;;;;;5453548;26;20498;-62
2024/04/11 09:49:43;;;;;;;2.47;0.70;;;16.40;99.90;;;;;;5452445;26;20320;-63
2024/04/11 09:52:10;;;;;;;2.95;0.75;;;16.50;99.90;;;;;;5452155;26;20139;-62
2024/04/11 09:54:38;;;;;;;1.88;0.77;;;16.50;99.90;;;;;;5453716;26;19999;-62
2024/04/11 09:57:05;;;;;;;1.85;0.70;;;16.60;99.90;;;;;;5453309;26;20003;-63
2024/04/11 09:59:32;;;;;;;3.47;0.65;;;16.70;99.90;;;;;;5453217;26;20359;-62
2024/04/11 10:02:01;;;;;;;1.98;0.70;;;16.80;99.90;;;;;;5453269;26;20006;-64
2024/04/11 10:04:35;;;;;;;2.58;0.60;;;16.80;99.90;;;;;;5453183;26;20340;-65
2024/04/11 10:07:04;;;;;;;2.65;0.82;;;16.80;99.90;;;;;;5453336;26;20010;-65
2024/04/11 10:09:31;;;;;;;1.60;0.60;;;16.80;99.90;;;;;;5453118;26;19998;-64
2024/04/11 10:12:00;;;;;;;2.33;0.70;;;16.70;99.90;;;;;;5453359;26;20007;-64
2024/04/11 10:14:35;;;;;;;2.05;0.70;;;16.70;99.90;;;;;;5453132;26;20351;-65
2024/04/11 10:17:04;;;;;;;2.28;0.73;;;16.70;99.90;;;;;;5452995;26;20066;-63
2024/04/11 10:19:35;;;;;;;2.88;1.00;;;16.70;99.90;;;;;;5453147;26;20034;-63
2024/04/11 10:22:04;;;;;;;2.33;0.60;;;16.80;99.90;;;;;;5452800;26;20351;-63
2024/04/11 10:24:37;;;;;;;3.17;0.70;;;16.90;99.90;;;;;;5452981;26;20015;-63
2024/04/11 10:27:09;;;;;;;2.95;0.90;;;16.90;99.90;;;;;;5452838;26;20014;-63
2024/04/11 10:29:37;;;;;;;1.40;0.60;;;16.90;99.90;;;;;;5452954;26;20098;-65
2024/04/11 10:32:06;;;;;;;3.10;0.85;;;17.00;99.90;;;;;;5452894;26;20413;-63
2024/04/11 10:34:44;;;;;;;2.15;0.60;;;17.10;99.90;;;;;;5452879;26;20015;-65
2024/04/11 10:37:12;;;;;;;2.83;1.10;;;17.20;99.90;;;;;;5452862;26;20002;-65
2024/04/11 10:39:39;;;;;;;4.18;1.30;;;17.20;99.90;;;;;;5452988;26;20014;-63
2024/04/11 10:42:15;;;;;;;3.35;1.13;;;17.20;99.90;;;;;;5452580;26;19998;-63
2024/04/11 10:44:43;;;;;;;2.33;1.08;;;17.20;99.90;;;;;;5453000;26;20432;-64
2024/04/11 10:47:13;;;;;;;3.28;1.10;;;17.10;99.90;;;;;;5452878;26;20139;-64
2024/04/11 10:49:45;;;;;;;3.03;0.80;;;17.10;99.90;;;;;;5452855;26;20010;-62
2024/04/11 10:52:12;;;;;;;1.73;0.63;;;17.20;99.90;;;;;;5452738;26;20134;-62
2024/04/11 10:54:39;;;;;;;1.70;0.70;;;17.30;99.90;;;;;;5452463;26;20014;-61
2024/04/11 10:57:12;;;;;;;2.85;0.85;;;17.30;99.90;;;;;;5452867;26;20006;-63
2024/04/11 10:59:50;;;;;;;2.83;0.80;;;17.40;99.90;;;;;;5452558;26;20087;-62
2024/04/11 11:02:23;;;;;;;3.95;1.00;;;17.30;99.90;;;;;;5452045;26;20420;-61
2024/04/11 11:04:50;;;;;;;3.35;1.20;;;17.30;99.90;;;;;;5456296;26;20117;-61
2024/04/11 11:07:18;;;;;;;2.58;1.13;;;17.30;99.90;;;;;;5455844;26;20007;-61
2024/04/11 11:09:48;;;;;;;2.88;1.15;;;17.30;99.90;;;;;;5455854;26;19999;-62
2024/04/11 11:12:18;;;;;;;2.88;0.90;;;17.40;99.90;;;;;;5455737;26;20106;-62
2024/04/11 11:14:46;;;;;;;2.67;0.95;;;17.40;99.90;;;;;;5455741;26;20447;-61
2024/04/11 11:17:20;;;;;;;2.40;1.10;;;17.50;99.90;;;;;;5453836;26;20017;-61
2024/04/11 11:19:49;;;;;;;1.67;0.68;;;17.60;99.90;;;;;;5454078;26;20003;-61
2024/04/11 11:22:18;;;;;;;1.45;0.60;;;17.60;99.90;;;;;;5455798;26;20010;-61
2024/04/11 11:24:47;;;;;;;1.80;0.80;;;17.50;99.90;;;;;;5455446;26;20052;-62
2024/04/11 11:27:13;;;;;;;2.90;0.75;;;17.50;99.90;;;;;;5455471;26;20341;-62
2024/04/11 11:29:42;;;;;;;1.90;0.70;;;17.50;99.90;;;;;;5455628;26;20087;-61
2024/04/11 11:32:18;;;;;;;2.72;0.70;;;17.70;99.90;;;;;;5455151;26;20035;-62
2024/04/11 11:34:47;;;;;;;3.75;0.60;;;17.80;99.90;;;;;;5455392;26;20014;-62
2024/04/11 11:37:14;;;;;;;5.82;0.80;;;18.00;99.90;;;;;;5455430;26;20014;-62
2024/04/11 11:39:44;;;;;;;2.30;0.70;;;18.10;99.90;;;;;;5455433;26;20019;-63
2024/04/11 11:42:23;;;;;;;3.33;0.90;;;18.20;99.90;;;;;;5455643;26;20018;-63
2024/04/11 11:47:34;;;;;;;4.75;1.40;;;18.30;99.90;;;;;;5453565;26;20376;-63
2024/04/11 11:50:07;;;;;;;3.97;1.40;;;18.30;99.90;;;;;;5455717;26;20102;-62
2024/04/11 11:52:34;;;;;;;2.45;0.77;;;18.30;99.90;;;;;;5455275;26;20357;-63
2024/04/11 11:55:03;;;;;;;2.30;0.80;;;18.30;99.90;;;;;;5455177;26;20049;-62
2024/04/11 11:57:39;;;;;;;2.05;0.60;;;18.30;99.90;;;;;;5454899;26;20010;-62
2024/04/11 12:00:18;;;;;;;1.90;0.77;;;18.30;99.90;;;;;;5455076;26;20003;-62
2024/04/11 12:02:46;;;;;;;1.92;0.88;;;18.30;99.90;;;;;;5455127;26;20006;-62
2024/04/11 12:05:14;;;;;;;2.28;0.80;;;18.30;99.90;;;;;;5454754;26;20015;-62
2024/04/11 12:07:43;;;;;;;1.60;0.68;;;18.40;99.90;;;;;;5454559;26;20006;-63
2024/04/11 12:10:12;;;;;;;2.95;0.80;;;18.40;99.90;;;;;;5454955;26;20346;-62
2024/04/11 12:12:43;;;;;;;3.78;0.85;;;18.40;99.90;;;;;;5454722;26;20338;-62
2024/04/11 12:15:23;;;;;;;8.95;1.40;;;18.50;99.90;;;;;;5453571;26;20010;-63
2024/04/11 12:17:50;;;;;;;4.25;0.73;;;18.50;99.90;;;;;;5454418;26;20486;-62
2024/04/11 12:20:17;;;;;;;1.73;0.70;;;18.60;99.90;;;;;;5454649;26;20035;-63
2024/04/11 12:22:44;;;;;;;2.78;1.00;;;18.70;99.90;;;;;;5454476;26;20482;-62
2024/04/11 12:25:18;;;;;;;4.35;1.02;;;18.80;99.90;;;;;;5452414;26;20011;-62
2024/04/11 12:27:46;;;;;;;1.90;0.88;;;18.80;99.90;;;;;;5454452;26;20447;-62
2024/04/11 12:30:22;;;;;;;2.47;0.80;;;18.70;99.90;;;;;;5454752;26;20022;-62
2024/04/11 12:32:49;;;;;;;2.47;0.88;;;18.70;99.90;;;;;;5455162;26;19999;-61
2024/04/11 12:35:17;;;;;;;2.65;0.85;;;18.60;99.90;;;;;;5454924;26;20003;-61
2024/04/11 12:37:46;;;;;;;3.97;0.90;;;18.70;99.90;;;;;;5454775;26;19999;-62
2024/04/11 12:40:13;;;;;;;2.08;0.68;;;18.80;99.90;;;;;;5454761;26;20079;-62
2024/04/11 12:42:44;;;;;;;4.35;0.90;;;18.80;99.90;;;;;;5430532;26;20409;-62
2024/04/11 12:45:18;;;;;;;1.80;0.70;;;18.80;99.90;;;;;;5418359;26;20296;-63
2024/04/11 12:47:49;;;;;;;2.17;0.82;;;18.90;99.90;;;;;;5416699;26;20012;-63
2024/04/11 12:50:21;;;;;;;1.05;0.50;;;19.00;99.90;;;;;;5418554;26;19999;-63
2024/04/11 12:52:49;;;;;;;2.40;0.63;;;18.90;99.90;;;;;;5418315;26;20022;-62
2024/04/11 12:55:24;;;;;;;1.75;0.60;;;18.80;99.90;;;;;;5418530;26;20010;-62
2024/04/11 12:57:52;;;;;;;2.70;0.80;;;18.80;99.90;;;;;;5418404;26;20079;-63